createdAt,value
2018-12-31T00:02:10.025Z,20.90
2018-12-31T00:04:20.863Z,18.27
2018-12-31T00:06:31.679Z,19.50
2018-12-31T00:08:42.503Z,16.50
2018-12-31T00:10:53.372Z,16.00
2018-12-31T00:13:04.150Z,19.47
2018-12-31T00:15:14.974Z,20.93
2018-12-31T00:17:25.880Z,21.80
2018-12-31T00:19:36.637Z,17.63
2018-12-31T00:21:47.430Z,19.90
2018-12-31T00:23:58.235Z,19.77
2018-12-31T00:26:09.058Z,20.17
2018-12-31T00:28:19.878Z,19.63
2018-12-31T00:30:30.713Z,18.47
2018-12-31T00:32:41.572Z,18.87
2018-12-31T00:34:52.360Z,17.57
2018-12-31T00:37:03.176Z,17.80
2018-12-31T00:39:13.977Z,17.77
2018-12-31T00:41:24.783Z,17.30
2018-12-31T00:43:35.615Z,16.37
2018-12-31T00:45:46.456Z,13.97
2018-12-31T00:47:57.277Z,13.57
2018-12-31T00:50:08.090Z,15.37
2018-12-31T00:52:18.929Z,17.20
2018-12-31T00:54:29.722Z,12.33
2018-12-31T00:56:40.653Z,15.67
2018-12-31T00:58:51.504Z,12.30
2018-12-31T01:01:02.400Z,13.40
2018-12-31T01:03:13.235Z,11.40
2018-12-31T01:05:24.067Z,13.10
2018-12-31T01:07:34.916Z,11.47
2018-12-31T01:12:18.219Z,10.20
2018-12-31T01:14:29.029Z,10.63
2018-12-31T01:16:39.822Z,12.53
2018-12-31T01:18:50.648Z,13.43
2018-12-31T01:21:01.453Z,10.37
2018-12-31T01:23:12.279Z,11.83
2018-12-31T01:25:23.065Z,11.70
2018-12-31T01:27:33.877Z,13.50
2018-12-31T01:29:44.687Z,11.40
2018-12-31T01:31:55.521Z,11.70
2018-12-31T01:34:06.434Z,12.73
2018-12-31T01:36:17.240Z,12.03
2018-12-31T01:38:28.088Z,12.30
2018-12-31T01:40:38.897Z,10.83
2018-12-31T01:42:49.715Z,9.93
2018-12-31T01:45:00.532Z,11.40
2018-12-31T01:47:11.342Z,8.70
2018-12-31T01:49:22.173Z,10.87
2018-12-31T01:51:32.999Z,10.13
2018-12-31T01:53:43.819Z,9.70
2018-12-31T01:55:54.621Z,7.87
2018-12-31T01:58:05.428Z,10.07
2018-12-31T02:00:16.250Z,6.60
2018-12-31T02:02:27.048Z,9.60
2018-12-31T02:04:37.869Z,8.23
2018-12-31T02:06:48.707Z,8.27
2018-12-31T02:08:59.540Z,9.57
2018-12-31T02:11:10.342Z,7.83
2018-12-31T02:13:21.130Z,8.03
2018-12-31T02:15:31.976Z,8.17
2018-12-31T02:17:42.767Z,8.63
2018-12-31T02:19:53.588Z,8.10
2018-12-31T02:22:04.391Z,8.23
2018-12-31T02:24:15.209Z,8.37
2018-12-31T02:26:26.039Z,8.40
2018-12-31T02:28:36.853Z,9.10
2018-12-31T02:30:47.672Z,8.20
2018-12-31T02:32:58.487Z,8.73
2018-12-31T02:35:09.296Z,7.30
2018-12-31T02:37:20.200Z,9.57
2018-12-31T02:39:31.000Z,8.40
2018-12-31T02:41:41.812Z,6.87
2018-12-31T02:43:52.629Z,7.53
2018-12-31T02:46:03.471Z,7.40
2018-12-31T02:48:14.373Z,9.37
2018-12-31T02:50:25.181Z,8.03
2018-12-31T02:52:35.988Z,8.90
2018-12-31T02:54:46.787Z,6.83
2018-12-31T02:56:57.601Z,8.67
2018-12-31T02:59:08.404Z,7.70
2018-12-31T03:01:19.222Z,7.53
2018-12-31T03:03:30.021Z,8.50
2018-12-31T03:05:40.837Z,7.33
2018-12-31T03:07:51.676Z,11.13
2018-12-31T03:10:44.153Z,9.93
2018-12-31T03:12:55.055Z,8.77
2018-12-31T03:15:05.858Z,7.90
2018-12-31T03:17:16.679Z,10.23
2018-12-31T03:19:27.457Z,9.23
2018-12-31T03:21:38.269Z,9.60
2018-12-31T03:23:49.074Z,7.37
2018-12-31T03:25:59.902Z,8.77
2018-12-31T03:28:10.715Z,8.20
2018-12-31T03:30:21.514Z,7.47
2018-12-31T03:32:32.336Z,7.20
2018-12-31T03:34:43.183Z,7.30
2018-12-31T03:36:53.977Z,6.37
2018-12-31T03:39:04.890Z,5.77
2018-12-31T03:41:15.697Z,6.07
2018-12-31T03:43:26.510Z,5.97
2018-12-31T03:45:37.303Z,7.40
2018-12-31T03:47:48.119Z,6.80
2018-12-31T03:49:58.908Z,6.37
2018-12-31T03:52:09.709Z,6.67
2018-12-31T03:54:20.533Z,5.50
2018-12-31T03:56:31.335Z,6.07
2018-12-31T03:58:42.143Z,5.70
2018-12-31T04:00:52.976Z,6.00
2018-12-31T04:03:03.774Z,6.50
2018-12-31T04:05:14.588Z,5.60
2018-12-31T04:07:25.523Z,5.87
2018-12-31T04:09:36.522Z,6.30
2018-12-31T04:11:47.361Z,5.33
2018-12-31T04:13:58.167Z,5.20
2018-12-31T04:16:08.953Z,5.60
2018-12-31T04:18:19.801Z,5.63
2018-12-31T04:20:30.622Z,5.47
2018-12-31T04:22:41.445Z,5.83
2018-12-31T04:24:52.266Z,6.70
2018-12-31T04:27:03.165Z,6.20
2018-12-31T04:29:13.969Z,5.83
2018-12-31T04:31:24.815Z,4.47
2018-12-31T04:33:35.621Z,7.03
2018-12-31T04:35:46.438Z,5.37
2018-12-31T04:37:57.236Z,6.67
2018-12-31T04:40:08.121Z,5.90
2018-12-31T04:42:18.851Z,5.30
2018-12-31T04:44:29.656Z,5.13
2018-12-31T04:46:40.488Z,5.60
2018-12-31T04:48:51.301Z,6.00
2018-12-31T04:51:02.130Z,6.07
2018-12-31T04:53:12.927Z,7.07
2018-12-31T04:55:23.738Z,5.53
2018-12-31T04:57:34.648Z,6.27
2018-12-31T04:59:45.437Z,4.83
2018-12-31T05:01:56.254Z,7.63
2018-12-31T05:04:07.080Z,5.83
2018-12-31T05:06:17.907Z,7.43
2018-12-31T05:08:28.727Z,5.20
2018-12-31T05:10:39.637Z,5.40
2018-12-31T05:12:50.447Z,5.10
2018-12-31T05:15:01.245Z,5.23
2018-12-31T05:17:12.076Z,6.30
2018-12-31T05:19:22.882Z,4.97
2018-12-31T05:21:33.688Z,6.10
2018-12-31T05:23:44.506Z,4.87
2018-12-31T05:25:55.322Z,5.00
2018-12-31T05:28:06.136Z,4.77
2018-12-31T05:30:16.924Z,6.43
2018-12-31T05:32:27.746Z,5.30
2018-12-31T05:34:38.557Z,5.50
2018-12-31T05:36:49.408Z,4.40
2018-12-31T05:39:00.212Z,4.37
2018-12-31T05:41:10.996Z,4.77
2018-12-31T05:43:21.848Z,6.07
2018-12-31T05:45:32.730Z,5.70
2018-12-31T05:47:43.554Z,3.77
2018-12-31T05:49:54.387Z,4.83
2018-12-31T05:52:05.185Z,5.60
2018-12-31T05:54:16.021Z,5.07
2018-12-31T05:56:26.823Z,5.63
2018-12-31T05:58:37.693Z,6.60
2018-12-31T06:00:48.531Z,5.40
2018-12-31T06:02:59.365Z,5.90
2018-12-31T06:05:10.220Z,4.90
2018-12-31T06:07:21.027Z,6.13
2018-12-31T06:09:31.846Z,6.93
2018-12-31T06:11:42.634Z,5.80
2018-12-31T06:13:53.453Z,6.73
2018-12-31T06:16:04.260Z,6.07
2018-12-31T06:18:15.059Z,6.87
2018-12-31T06:20:25.894Z,6.77
2018-12-31T06:22:36.710Z,7.17
2018-12-31T06:24:47.519Z,6.67
2018-12-31T06:26:58.313Z,5.27
2018-12-31T06:29:09.101Z,5.87
2018-12-31T06:31:19.942Z,7.47
2018-12-31T06:33:30.785Z,7.00
2018-12-31T06:38:20.912Z,6.40
2018-12-31T06:40:31.732Z,6.10
2018-12-31T06:42:42.513Z,6.77
2018-12-31T06:44:53.323Z,6.30
2018-12-31T06:47:04.146Z,6.13
2018-12-31T06:49:14.956Z,7.23
2018-12-31T06:51:25.783Z,6.80
2018-12-31T06:53:36.589Z,6.30
2018-12-31T06:55:47.392Z,8.37
2018-12-31T06:57:58.228Z,7.17
2018-12-31T07:00:09.154Z,7.60
2018-12-31T07:02:19.967Z,7.27
2018-12-31T07:04:30.762Z,7.30
2018-12-31T07:07:23.224Z,7.63
2018-12-31T07:09:34.097Z,7.17
2018-12-31T07:11:44.951Z,8.77
2018-12-31T07:13:55.745Z,9.90
2018-12-31T07:16:06.558Z,9.27
2018-12-31T07:18:17.390Z,8.60
2018-12-31T07:20:28.198Z,8.83
2018-12-31T07:22:39.153Z,7.33
2018-12-31T07:24:49.954Z,8.63
2018-12-31T07:27:00.785Z,7.87
2018-12-31T07:29:11.610Z,7.30
2018-12-31T07:31:22.474Z,6.87
2018-12-31T07:33:33.236Z,11.37
2018-12-31T07:35:44.104Z,8.60
2018-12-31T07:37:54.955Z,8.40
2018-12-31T07:40:05.756Z,7.67
2018-12-31T07:42:16.583Z,7.73
2018-12-31T07:44:27.378Z,8.83
2018-12-31T07:46:38.188Z,9.37
2018-12-31T07:48:49.007Z,8.70
2018-12-31T07:50:59.840Z,8.93
2018-12-31T07:53:10.671Z,8.83
2018-12-31T07:55:21.501Z,8.23
2018-12-31T07:57:32.321Z,7.93
2018-12-31T07:59:43.116Z,8.20
2018-12-31T08:01:53.942Z,8.90
2018-12-31T08:04:04.773Z,7.40
2018-12-31T08:06:15.579Z,6.93
2018-12-31T08:08:26.440Z,7.03
2018-12-31T08:10:37.239Z,8.23
2018-12-31T08:12:48.069Z,6.40
2018-12-31T08:14:58.901Z,6.57
2018-12-31T08:17:09.697Z,5.57
2018-12-31T08:19:20.514Z,6.20
2018-12-31T08:21:31.312Z,7.33
2018-12-31T08:23:42.148Z,6.07
2018-12-31T08:25:53.001Z,7.20
2018-12-31T08:28:03.865Z,6.37
2018-12-31T08:30:14.698Z,4.47
2018-12-31T08:32:25.494Z,5.27
2018-12-31T08:34:36.356Z,5.57
2018-12-31T08:36:47.131Z,5.60
2018-12-31T08:38:57.941Z,4.87
2018-12-31T08:41:08.772Z,3.80
2018-12-31T08:43:19.663Z,4.20
2018-12-31T08:45:30.501Z,4.53
2018-12-31T08:47:41.304Z,4.50
2018-12-31T08:49:52.136Z,4.90
2018-12-31T08:52:22.829Z,3.50
2018-12-31T08:54:33.636Z,4.13
2018-12-31T08:56:44.502Z,3.57
2018-12-31T08:58:55.297Z,4.03
2018-12-31T09:01:06.144Z,3.03
2018-12-31T09:03:16.962Z,3.30
2018-12-31T09:05:27.906Z,3.33
2018-12-31T09:07:38.723Z,3.30
2018-12-31T09:09:49.516Z,3.30
2018-12-31T09:12:00.338Z,3.90
2018-12-31T09:14:11.135Z,3.63
2018-12-31T09:16:21.964Z,2.70
2018-12-31T09:18:32.764Z,3.30
2018-12-31T09:20:43.612Z,2.97
2018-12-31T09:23:01.891Z,2.90
2018-12-31T09:25:12.699Z,3.53
2018-12-31T09:27:23.515Z,3.70
2018-12-31T09:29:34.351Z,3.57
2018-12-31T09:31:45.180Z,3.60
2018-12-31T09:33:56.015Z,3.67
2018-12-31T09:36:06.816Z,3.43
2018-12-31T09:38:17.661Z,3.30
2018-12-31T09:40:28.482Z,3.60
2018-12-31T09:42:39.319Z,3.83
2018-12-31T09:44:50.157Z,6.37
2018-12-31T09:47:00.969Z,4.40
2018-12-31T09:49:11.789Z,4.27
2018-12-31T09:51:22.591Z,4.00
2018-12-31T09:53:33.430Z,4.03
2018-12-31T09:55:44.276Z,4.63
2018-12-31T09:57:55.067Z,4.83
2018-12-31T10:00:47.584Z,4.50
2018-12-31T10:02:58.402Z,5.10
2018-12-31T10:05:09.226Z,4.80
2018-12-31T10:07:20.077Z,4.77
2018-12-31T10:09:30.910Z,4.07
2018-12-31T10:11:41.710Z,5.20
2018-12-31T10:13:52.522Z,5.00
2018-12-31T10:16:03.371Z,5.33
2018-12-31T10:18:14.204Z,6.53
2018-12-31T10:20:25.042Z,5.17
2018-12-31T10:22:35.854Z,5.23
2018-12-31T10:24:46.682Z,5.90
2018-12-31T10:26:57.503Z,5.80
2018-12-31T10:29:08.335Z,5.63
2018-12-31T10:31:19.159Z,5.63
2018-12-31T10:33:30.068Z,5.23
2018-12-31T10:35:40.906Z,5.77
2018-12-31T10:37:51.715Z,4.87
2018-12-31T10:40:24.310Z,6.30
2018-12-31T10:42:35.134Z,5.20
2018-12-31T10:45:07.732Z,5.50
2018-12-31T10:47:18.560Z,5.27
2018-12-31T10:49:29.378Z,5.93
2018-12-31T10:51:40.310Z,6.07
2018-12-31T10:53:51.103Z,7.63
2018-12-31T10:56:01.932Z,6.30
2018-12-31T10:58:12.729Z,6.13
2018-12-31T11:00:23.562Z,5.53
2018-12-31T11:02:34.391Z,6.13
2018-12-31T11:04:45.190Z,7.40
2018-12-31T11:06:56.111Z,7.63
2018-12-31T11:09:06.945Z,7.70
2018-12-31T11:11:17.821Z,5.80
2018-12-31T11:13:28.606Z,5.93
2018-12-31T11:15:39.454Z,5.90
2018-12-31T11:17:50.291Z,6.17
2018-12-31T11:20:01.192Z,6.07
2018-12-31T11:22:12.014Z,6.07
2018-12-31T11:24:22.798Z,7.07
2018-12-31T11:26:33.629Z,6.97
2018-12-31T11:28:44.470Z,6.13
2018-12-31T11:30:55.305Z,6.70
2018-12-31T11:33:06.147Z,7.23
2018-12-31T11:35:16.965Z,6.90
2018-12-31T11:37:34.421Z,7.17
2018-12-31T11:39:40.498Z,6.57
2018-12-31T11:41:51.332Z,5.93
2018-12-31T11:44:02.148Z,8.50
2018-12-31T11:46:12.953Z,6.40
2018-12-31T11:48:23.783Z,7.33
2018-12-31T11:50:34.796Z,7.10
2018-12-31T11:52:45.559Z,7.60
2018-12-31T11:54:56.404Z,6.87
2018-12-31T11:57:07.264Z,7.77
2018-12-31T11:59:18.105Z,7.90
2018-12-31T12:04:01.392Z,7.33
2018-12-31T12:06:12.187Z,9.93
2018-12-31T12:08:42.926Z,8.13
2018-12-31T12:10:54.074Z,7.93
2018-12-31T12:13:04.884Z,10.20
2018-12-31T12:15:15.724Z,8.03
2018-12-31T12:17:26.533Z,10.80
2018-12-31T12:19:37.347Z,8.77
2018-12-31T12:21:48.151Z,9.37
2018-12-31T12:23:58.945Z,9.00
2018-12-31T12:26:09.797Z,8.90
2018-12-31T12:28:20.600Z,10.00
2018-12-31T12:30:31.434Z,8.03
2018-12-31T12:32:42.229Z,9.03
2018-12-31T12:34:53.101Z,8.17
2018-12-31T12:37:04.023Z,9.40
2018-12-31T12:39:14.917Z,8.03
2018-12-31T12:41:25.869Z,8.33
2018-12-31T12:43:36.991Z,8.57
2018-12-31T12:45:47.848Z,8.63
2018-12-31T12:47:58.659Z,7.30
2018-12-31T12:50:09.493Z,7.20
2018-12-31T12:52:20.307Z,7.47
2018-12-31T12:54:31.154Z,8.07
2018-12-31T12:56:41.977Z,6.97
2018-12-31T12:58:53.046Z,9.23
2018-12-31T13:01:03.862Z,7.23
2018-12-31T13:03:14.667Z,8.37
2018-12-31T13:05:25.502Z,8.10
2018-12-31T13:07:36.359Z,8.30
2018-12-31T13:09:47.179Z,8.20
2018-12-31T13:11:57.992Z,9.00
2018-12-31T13:14:08.900Z,7.97
2018-12-31T13:16:20.039Z,7.63
2018-12-31T13:18:30.968Z,9.00
2018-12-31T13:21:01.671Z,8.93
2018-12-31T13:23:12.527Z,7.47
2018-12-31T13:25:25.234Z,7.30
2018-12-31T13:27:37.976Z,7.60
2018-12-31T13:29:48.807Z,7.27
2018-12-31T13:31:59.641Z,5.93
2018-12-31T13:34:10.439Z,6.00
2018-12-31T13:36:21.267Z,6.67
2018-12-31T13:38:32.113Z,5.73
2018-12-31T13:40:42.918Z,5.77
2018-12-31T13:42:53.743Z,6.93
2018-12-31T13:45:04.669Z,6.33
2018-12-31T13:47:15.512Z,6.10
2018-12-31T13:49:26.328Z,6.40
2018-12-31T13:51:37.171Z,5.77
2018-12-31T13:53:48.010Z,6.30
2018-12-31T13:55:58.824Z,7.20
2018-12-31T13:58:09.664Z,7.03
2018-12-31T14:00:22.432Z,7.57
2018-12-31T14:02:33.452Z,7.03
2018-12-31T14:04:44.268Z,7.33
2018-12-31T14:06:55.063Z,7.03
2018-12-31T14:09:05.900Z,6.57
2018-12-31T14:11:18.095Z,7.77
2018-12-31T14:13:29.449Z,7.90
2018-12-31T14:15:40.242Z,7.57
2018-12-31T14:17:51.108Z,7.40
2018-12-31T14:22:54.283Z,7.90
2018-12-31T14:25:05.217Z,9.07
2018-12-31T14:27:16.038Z,8.63
2018-12-31T14:29:26.891Z,8.80
2018-12-31T14:31:37.692Z,9.07
2018-12-31T14:33:48.522Z,9.20
2018-12-31T14:35:59.379Z,9.37
2018-12-31T14:38:10.301Z,8.10
2018-12-31T14:40:21.145Z,10.10
2018-12-31T14:42:31.945Z,8.33
2018-12-31T14:44:42.785Z,8.30
2018-12-31T14:46:53.614Z,10.03
2018-12-31T14:49:04.448Z,9.83
2018-12-31T14:51:15.392Z,8.07
2018-12-31T14:53:26.185Z,10.53
2018-12-31T14:55:37.365Z,10.00
2018-12-31T14:57:48.198Z,9.00
2018-12-31T14:59:59.038Z,9.93
2018-12-31T15:02:09.896Z,8.97
2018-12-31T15:04:20.713Z,11.17
2018-12-31T15:06:31.558Z,13.00
2018-12-31T15:08:42.369Z,11.60
2018-12-31T15:10:53.190Z,10.27
2018-12-31T15:13:04.025Z,9.77
2018-12-31T15:15:14.832Z,8.83
2018-12-31T15:17:25.665Z,9.47
2018-12-31T15:19:36.517Z,9.13
2018-12-31T15:21:47.332Z,8.97
2018-12-31T15:23:58.157Z,9.80
2018-12-31T15:26:09.002Z,8.53
2018-12-31T15:28:20.138Z,9.47
2018-12-31T15:30:30.952Z,11.47
2018-12-31T15:32:41.885Z,11.13
2018-12-31T15:34:52.684Z,11.43
2018-12-31T15:37:03.531Z,9.90
2018-12-31T15:39:14.416Z,10.20
2018-12-31T15:41:25.239Z,10.70
2018-12-31T15:43:36.087Z,9.20
2018-12-31T15:45:46.923Z,11.80
2018-12-31T15:47:57.766Z,10.63
2018-12-31T15:50:08.587Z,11.67
2018-12-31T15:52:19.396Z,13.93
2018-12-31T15:54:30.232Z,10.47
2018-12-31T15:56:41.045Z,10.90
2018-12-31T15:58:52.183Z,11.27
2018-12-31T16:01:03.026Z,9.77
2018-12-31T16:03:26.953Z,11.80
2018-12-31T16:05:38.127Z,12.70
2018-12-31T16:07:49.131Z,10.13
2018-12-31T16:10:00.015Z,9.77
2018-12-31T16:12:10.895Z,12.57
2018-12-31T16:14:21.714Z,12.40
2018-12-31T16:16:32.614Z,15.57
2018-12-31T16:18:43.506Z,99.93
2018-12-31T16:20:54.299Z,164.30
2018-12-31T16:23:05.119Z,65.23
2018-12-31T16:25:16.048Z,42.13
2018-12-31T16:27:26.868Z,28.83
2018-12-31T16:29:37.729Z,38.63
2018-12-31T16:31:48.546Z,37.90
2018-12-31T16:33:59.368Z,75.50
2018-12-31T16:36:12.159Z,62.97
2018-12-31T16:38:23.192Z,49.97
2018-12-31T16:40:34.012Z,38.20
2018-12-31T16:42:44.926Z,25.83
2018-12-31T16:44:55.763Z,17.73
2018-12-31T16:47:06.577Z,15.13
2018-12-31T16:49:17.418Z,17.97
2018-12-31T16:51:28.213Z,14.53
2018-12-31T16:53:39.031Z,19.50
2018-12-31T16:55:49.961Z,20.97
2018-12-31T16:58:00.804Z,18.10
2018-12-31T17:00:11.699Z,18.20
2018-12-31T17:02:22.536Z,17.03
2018-12-31T17:04:33.389Z,17.67
2018-12-31T17:06:44.170Z,17.03
2018-12-31T17:08:55.293Z,20.27
2018-12-31T17:11:06.151Z,15.33
2018-12-31T17:13:16.963Z,16.57
2018-12-31T17:15:27.766Z,22.83
2018-12-31T17:17:38.678Z,22.07
2018-12-31T17:19:49.476Z,116.30
2018-12-31T17:22:00.502Z,89.97
2018-12-31T17:24:11.300Z,51.40
2018-12-31T17:26:22.111Z,38.97
2018-12-31T17:28:32.936Z,28.93
2018-12-31T17:30:43.785Z,22.07
2018-12-31T17:32:54.583Z,19.57
2018-12-31T17:35:05.402Z,20.67
2018-12-31T17:37:18.115Z,23.23
2018-12-31T17:39:29.248Z,26.90
2018-12-31T17:41:40.080Z,25.03
2018-12-31T17:43:50.872Z,25.80
2018-12-31T17:46:01.693Z,24.57
2018-12-31T17:48:12.509Z,22.83
2018-12-31T17:50:23.392Z,24.03
2018-12-31T17:52:34.247Z,22.93
2018-12-31T17:54:45.063Z,27.73
2018-12-31T17:56:55.890Z,38.60
2018-12-31T17:59:06.765Z,36.30
2018-12-31T18:01:17.559Z,38.97
2018-12-31T18:03:28.398Z,32.37
2018-12-31T18:05:39.225Z,27.03
2018-12-31T18:07:50.262Z,27.90
2018-12-31T18:10:44.628Z,41.90
2018-12-31T18:12:55.459Z,44.40
2018-12-31T18:15:06.279Z,37.93
2018-12-31T18:17:17.083Z,26.97
2018-12-31T18:19:27.900Z,23.70
2018-12-31T18:21:38.693Z,22.67
2018-12-31T18:23:49.542Z,15.87
2018-12-31T18:26:00.360Z,20.20
2018-12-31T18:28:11.156Z,22.60
2018-12-31T18:30:23.886Z,18.70
2018-12-31T18:32:34.707Z,19.27
2018-12-31T18:34:45.524Z,20.40
2018-12-31T18:36:56.316Z,25.17
2018-12-31T18:39:07.256Z,22.73
2018-12-31T18:41:18.075Z,23.77
2018-12-31T18:43:28.859Z,22.57
2018-12-31T18:45:39.679Z,18.43
2018-12-31T18:47:50.486Z,22.73
2018-12-31T18:50:01.302Z,24.13
2018-12-31T18:52:12.109Z,22.97
2018-12-31T18:54:22.956Z,22.97
2018-12-31T18:56:33.797Z,26.20
2018-12-31T18:58:46.429Z,33.43
2018-12-31T19:00:57.354Z,22.67
2018-12-31T19:03:08.386Z,30.87
2018-12-31T19:05:19.209Z,36.97
2018-12-31T19:07:30.014Z,25.87
2018-12-31T19:09:40.831Z,23.97
2018-12-31T19:11:51.643Z,28.00
2018-12-31T19:14:03.932Z,24.93
2018-12-31T19:16:15.174Z,26.07
2018-12-31T19:18:25.973Z,27.47
2018-12-31T19:20:36.873Z,25.27
2018-12-31T19:22:47.735Z,27.00
2018-12-31T19:24:58.535Z,32.10
2018-12-31T19:27:09.409Z,26.33
2018-12-31T19:29:20.223Z,30.50
2018-12-31T19:31:32.970Z,25.03
2018-12-31T19:33:45.681Z,30.77
2018-12-31T19:35:56.483Z,25.27
2018-12-31T19:38:07.308Z,26.83
2018-12-31T19:40:18.098Z,31.20
2018-12-31T19:42:29.027Z,26.60
2018-12-31T19:44:39.861Z,27.10
2018-12-31T19:46:50.663Z,28.60
2018-12-31T19:51:18.536Z,31.83
2018-12-31T19:53:29.380Z,28.60
2018-12-31T19:55:40.187Z,25.40
2018-12-31T19:57:51.050Z,45.37
2018-12-31T20:00:43.529Z,41.97
2018-12-31T20:02:54.382Z,38.13
2018-12-31T20:05:05.308Z,33.13
2018-12-31T20:07:16.117Z,25.03
2018-12-31T20:09:26.976Z,22.47
2018-12-31T20:11:37.791Z,25.67
2018-12-31T20:13:48.632Z,28.23
2018-12-31T20:15:59.442Z,30.30
2018-12-31T20:18:10.282Z,48.97
2018-12-31T20:20:21.090Z,38.00
2018-12-31T20:22:31.943Z,29.17
2018-12-31T20:24:44.677Z,28.53
2018-12-31T20:26:57.389Z,33.83
2018-12-31T20:29:08.184Z,33.40
2018-12-31T20:31:19.000Z,26.10
2018-12-31T20:34:11.475Z,29.87
2018-12-31T20:36:22.316Z,105.30
2018-12-31T20:38:33.125Z,44.73
2018-12-31T20:40:43.966Z,62.77
2018-12-31T20:42:56.709Z,80.10
2018-12-31T20:45:07.613Z,65.23
2018-12-31T20:47:18.429Z,79.07
2018-12-31T20:49:29.231Z,79.77
2018-12-31T20:51:40.067Z,59.53
2018-12-31T20:53:50.908Z,75.53
2018-12-31T20:56:01.819Z,53.37
2018-12-31T20:58:12.635Z,51.03
2018-12-31T21:00:23.440Z,41.77
2018-12-31T21:02:34.262Z,37.83
2018-12-31T21:04:45.160Z,36.07
2018-12-31T21:06:55.997Z,34.23
2018-12-31T21:09:07.024Z,31.00
2018-12-31T21:11:19.770Z,35.67
2018-12-31T21:13:30.601Z,39.47
2018-12-31T21:15:41.450Z,28.67
2018-12-31T21:17:52.274Z,25.37
2018-12-31T21:20:44.720Z,36.63
2018-12-31T21:22:55.559Z,30.63
2018-12-31T21:25:06.551Z,25.20
2018-12-31T21:27:17.431Z,29.77
2018-12-31T21:29:30.245Z,26.47
2018-12-31T21:31:41.139Z,27.90
2018-12-31T21:33:51.955Z,29.57
2018-12-31T21:36:02.856Z,21.17
2018-12-31T21:38:13.678Z,27.50
2018-12-31T21:40:24.531Z,26.47
2018-12-31T21:42:35.364Z,35.20
2018-12-31T21:44:46.186Z,42.73
2018-12-31T21:46:56.989Z,36.97
2018-12-31T21:49:07.836Z,28.17
2018-12-31T21:51:18.661Z,47.43
2018-12-31T21:53:29.500Z,56.27
2018-12-31T21:55:40.299Z,52.87
2018-12-31T21:57:51.333Z,50.10
2018-12-31T22:00:43.828Z,64.27
2018-12-31T22:02:57.220Z,64.20
2018-12-31T22:05:07.486Z,70.17
2018-12-31T22:09:50.728Z,70.67
2018-12-31T22:12:01.529Z,78.97
2018-12-31T22:14:12.351Z,61.33
2018-12-31T22:16:23.147Z,65.53
2018-12-31T22:18:33.997Z,72.60
2018-12-31T22:20:44.844Z,61.73
2018-12-31T22:22:55.672Z,60.47
2018-12-31T22:25:06.605Z,52.87
2018-12-31T22:27:19.321Z,49.00
2018-12-31T22:29:32.042Z,56.37
2018-12-31T22:31:42.883Z,67.13
2018-12-31T22:33:53.698Z,72.20
2018-12-31T22:36:04.557Z,55.17
2018-12-31T22:38:15.347Z,47.20
2018-12-31T22:40:26.172Z,59.47
2018-12-31T22:42:37.107Z,52.50
2018-12-31T22:44:47.951Z,47.33
2018-12-31T22:46:58.771Z,43.67
2018-12-31T22:49:09.557Z,55.43
2018-12-31T22:51:20.535Z,83.23
2018-12-31T22:53:31.390Z,133.90
2018-12-31T22:55:42.202Z,69.30
2018-12-31T22:57:52.990Z,60.80
2018-12-31T23:00:47.381Z,65.93
2018-12-31T23:02:58.193Z,223.33
2018-12-31T23:05:09.278Z,436.07
2018-12-31T23:07:20.107Z,382.37
2018-12-31T23:09:30.941Z,675.90
2018-12-31T23:11:41.793Z,628.43
2018-12-31T23:13:52.582Z,335.20
2018-12-31T23:16:03.404Z,311.80
2018-12-31T23:18:14.205Z,178.60
2018-12-31T23:20:26.934Z,130.97
2018-12-31T23:22:39.662Z,128.53
2018-12-31T23:24:50.478Z,104.17
2018-12-31T23:27:01.410Z,159.63
2018-12-31T23:29:12.319Z,431.27
2018-12-31T23:31:23.153Z,479.63
2018-12-31T23:33:33.971Z,334.00
2018-12-31T23:35:44.787Z,280.70
2018-12-31T23:37:55.603Z,250.00
2018-12-31T23:40:48.073Z,181.80
2018-12-31T23:43:06.165Z,239.37
2018-12-31T23:45:11.611Z,291.37
2018-12-31T23:47:22.483Z,237.73
2018-12-31T23:49:33.307Z,161.90
2018-12-31T23:51:44.108Z,132.00
2018-12-31T23:53:54.938Z,114.80
2018-12-31T23:56:05.742Z,80.50
2018-12-31T23:58:16.632Z,68.10
